Atlasburg, Pennsylvania
Current Conditions -  °F | °C
As of 4:51 AM on Thursday 23 Oct 2014 (Local Time) from KPIT Reporting Station
Overcast Overcast  
Wind Chill: 39°   Ceiling: 1900
Heat Index: 45°   Visibility: 10mi
Dew Point: 42°   Wind: 13mph
Humidity: 90%   Direction: 320°NW
Pressure: 30.12"   Gusts: NA
Location:  40.34°N, 80.38°W
Report Text: KPIT 230851Z 32011KT 10SM OVC019 07/06 A3012 RMK AO2 SLP211 T00720056 58006
Loading
Personal Weather Stations






























Interactive Weather Map
Tropical Storm Tracking
New forecast layout! Learn more

10-Day Weather Forecast

Advertisements
Track Severe Weather on mobile